Time;durP1;ratioP1;P1;durP2;ratioP2;P2;SDS_P1;SDS_P2;PMS_P1;PMS_P2;Temp;Humidity;BMP_temperature;BMP_pressure;BME280_temperature;BME280_humidity;BME280_pressure;Samples;Min_cycle;Max_cycle;Signal;HPM_P1;HPM_P2
2023/03/03 05:22:33;;;;;;;8.68;6.93;;;;;;;-1.52;100.00;100597.09;5089131;28;20615;-68
2023/03/03 05:24:59;;;;;;;8.63;6.32;;;;;;;-1.47;100.00;100589.84;5089154;28;20032;-69
2023/03/03 05:27:24;;;;;;;17.90;6.65;;;;;;;-1.38;100.00;100597.13;5088660;28;20136;-69
2023/03/03 05:29:50;;;;;;;15.10;7.55;;;;;;;-1.37;100.00;100588.38;5089077;28;20020;-69
2023/03/03 05:32:15;;;;;;;12.20;7.70;;;;;;;-1.30;100.00;100603.72;5088970;28;20485;-69
2023/03/03 05:34:41;;;;;;;11.73;6.57;;;;;;;-1.27;100.00;100598.28;5088959;28;20093;-69
2023/03/03 05:37:06;;;;;;;16.73;7.97;;;;;;;-1.23;100.00;100600.66;5088648;28;20111;-67
2023/03/03 05:39:33;;;;;;;14.32;8.90;;;;;;;-1.20;100.00;100602.22;5088731;28;20516;-68
2023/03/03 05:41:59;;;;;;;12.25;7.20;;;;;;;-1.19;100.00;100606.53;5088714;28;20473;-67
2023/03/03 05:44:25;;;;;;;9.30;6.88;;;;;;;-1.12;100.00;100611.28;5088947;28;20051;-69
2023/03/03 05:46:50;;;;;;;10.38;7.32;;;;;;;-1.05;100.00;100618.78;5087857;28;20058;-69
2023/03/03 05:49:16;;;;;;;12.80;8.23;;;;;;;-1.00;100.00;100621.97;5088624;28;20132;-67
2023/03/03 05:51:41;;;;;;;20.73;9.10;;;;;;;-0.93;100.00;100621.53;5086065;28;20504;-67
2023/03/03 05:54:07;;;;;;;14.88;7.72;;;;;;;-0.87;100.00;100629.00;5088681;28;20123;-71
2023/03/03 05:56:32;;;;;;;19.65;8.35;;;;;;;-0.80;100.00;100631.25;5092121;28;20131;-69
2023/03/03 05:58:58;;;;;;;9.52;6.47;;;;;;;-0.74;100.00;100634.34;5078265;28;20033;-68
2023/03/03 06:01:23;;;;;;;16.10;7.90;;;;;;;-0.69;100.00;100628.84;5068098;28;20102;-68
2023/03/03 06:03:48;;;;;;;11.48;6.68;;;;;;;-0.68;100.00;100638.38;5068132;28;20080;-67
2023/03/03 06:06:15;;;;;;;16.90;8.18;;;;;;;-0.67;100.00;100638.28;5067985;28;20120;-69
2023/03/03 06:08:41;;;;;;;15.32;8.38;;;;;;;-0.61;100.00;100651.00;5067841;28;20037;-69
2023/03/03 06:11:06;;;;;;;16.00;8.15;;;;;;;-0.54;100.00;100651.47;5067903;28;20040;-69
2023/03/03 06:13:32;;;;;;;15.40;6.70;;;;;;;-0.50;100.00;100642.50;5066575;28;20044;-67
2023/03/03 06:15:58;;;;;;;14.75;7.93;;;;;;;-0.42;100.00;100647.28;5067741;28;20036;-67
2023/03/03 06:18:23;;;;;;;16.80;7.93;;;;;;;-0.41;100.00;100657.66;5067539;28;20049;-69
2023/03/03 06:20:53;;;;;;;18.27;8.73;;;;;;;-0.35;100.00;100646.81;5067690;28;20033;-68
2023/03/03 06:23:19;;;;;;;12.68;8.68;;;;;;;-0.33;100.00;100660.66;5067814;28;20084;-69
2023/03/03 06:25:45;;;;;;;14.98;8.70;;;;;;;-0.30;100.00;100663.06;5067597;28;20035;-68
2023/03/03 06:28:10;;;;;;;16.45;8.95;;;;;;;-0.26;100.00;100666.38;5067240;28;20401;-68
2023/03/03 06:30:35;;;;;;;17.75;8.15;;;;;;;-0.23;100.00;100670.56;5067635;28;20132;-68
2023/03/03 06:33:01;;;;;;;17.15;7.75;;;;;;;-0.21;100.00;100672.13;5059240;28;20098;-68
2023/03/03 06:35:26;;;;;;;16.20;9.02;;;;;;;-0.12;100.00;100676.00;5054273;28;20044;-69
2023/03/03 06:37:52;;;;;;;14.40;8.07;;;;;;;-0.07;100.00;100676.53;5054067;28;20041;-69
2023/03/03 06:40:17;;;;;;;12.93;7.47;;;;;;;-0.10;100.00;100674.09;5054128;28;20040;-68
2023/03/03 06:42:43;;;;;;;17.75;8.07;;;;;;;-0.11;100.00;100675.06;5054128;28;20045;-68
2023/03/03 06:45:08;;;;;;;14.00;6.68;;;;;;;-0.07;100.00;100681.75;5054082;28;20043;-68
2023/03/03 06:47:34;;;;;;;13.77;8.20;;;;;;;-0.05;100.00;100679.91;5053840;28;20102;-68
2023/03/03 06:49:59;;;;;;;14.35;8.32;;;;;;;-0.02;100.00;100683.16;5053990;28;20406;-69
2023/03/03 06:52:26;;;;;;;15.32;8.10;;;;;;;-0.03;100.00;100678.03;5053938;28;20497;-70
2023/03/03 06:54:54;;;;;;;14.85;7.97;;;;;;;0.04;100.00;100687.19;5053985;28;20436;-70
2023/03/03 06:57:29;;;;;;;18.50;8.23;;;;;;;0.09;100.00;100686.91;5053464;28;20043;-69
2023/03/03 06:59:59;;;;;;;15.85;7.20;;;;;;;0.14;100.00;100685.69;5054078;28;20033;-68
2023/03/03 07:02:24;;;;;;;18.55;8.70;;;;;;;0.18;100.00;100700.25;5053678;28;20109;-69
2023/03/03 07:04:50;;;;;;;18.50;9.13;;;;;;;0.23;100.00;100700.81;5053816;28;20371;-69
2023/03/03 07:07:17;;;;;;;14.23;8.65;;;;;;;0.28;100.00;100697.91;5053300;28;20036;-69
2023/03/03 07:09:45;;;;;;;14.03;7.83;;;;;;;0.37;100.00;100699.09;5053673;28;20033;-68
2023/03/03 07:12:16;;;;;;;16.67;8.20;;;;;;;0.40;100.00;100701.56;5053077;28;20365;-67
2023/03/03 07:14:50;;;;;;;15.45;7.50;;;;;;;0.47;100.00;100693.19;5052172;28;20037;-68
2023/03/03 07:17:19;;;;;;;17.45;7.88;;;;;;;0.49;100.00;100685.22;5053102;28;20044;-68
2023/03/03 07:19:46;;;;;;;14.73;7.63;;;;;;;0.62;100.00;100695.78;5053470;28;20086;-68
2023/03/03 07:22:16;;;;;;;17.60;8.23;;;;;;;0.64;100.00;100694.72;5053244;28;20037;-69
2023/03/03 07:25:03;;;;;;;12.48;7.80;;;;;;;0.67;100.00;100693.69;5053371;28;20392;-69
2023/03/03 07:27:30;;;;;;;13.85;7.32;;;;;;;0.73;100.00;100699.38;5052573;28;20044;-68
2023/03/03 07:30:26;;;;;;;12.60;7.60;;;;;;;0.84;100.00;100703.91;5053330;28;20116;-61
2023/03/03 07:32:55;;;;;;;15.77;8.88;;;;;;;0.89;100.00;100701.00;5053214;28;20041;-67
2023/03/03 07:35:39;;;;;;;17.23;8.82;;;;;;;0.89;100.00;100707.09;5053197;28;20110;-68
2023/03/03 07:38:24;;;;;;;13.50;8.57;;;;;;;1.02;100.00;100713.22;5052841;28;20464;-67
2023/03/03 07:40:52;;;;;;;18.33;9.02;;;;;;;1.05;100.00;100701.69;5053149;28;20430;-67
2023/03/03 07:43:33;;;;;;;14.85;9.50;;;;;;;1.13;100.00;100709.06;5052857;28;20107;-67
2023/03/03 07:46:08;;;;;;;14.48;7.60;;;;;;;1.19;100.00;100714.75;5052400;28;20040;-67
2023/03/03 07:48:36;;;;;;;15.88;7.90;;;;;;;1.22;100.00;100717.13;5052688;28;20040;-67
2023/03/03 07:51:24;;;;;;;16.08;8.57;;;;;;;1.13;100.00;100725.63;5051583;28;20083;-67
2023/03/03 07:53:51;;;;;;;15.25;9.70;;;;;;;1.20;100.00;100718.19;5052904;28;20119;-67
2023/03/03 07:56:16;;;;;;;14.05;7.20;;;;;;;1.27;100.00;100730.81;5051389;28;20029;-67
2023/03/03 07:58:42;;;;;;;14.35;8.15;;;;;;;1.22;100.00;100738.13;5052578;28;20036;-67
2023/03/03 08:01:35;;;;;;;18.83;8.95;;;;;;;1.37;100.00;100736.31;5052765;28;20025;-67
2023/03/03 08:04:00;;;;;;;14.98;8.63;;;;;;;1.45;100.00;100743.66;5052655;28;20523;-67
2023/03/03 08:06:35;;;;;;;16.98;8.98;;;;;;;1.51;100.00;100738.84;5052576;28;20048;-68
2023/03/03 08:09:09;;;;;;;23.35;10.23;;;;;;;1.62;99.84;100743.34;5052271;28;20080;-67
2023/03/03 08:12:08;;;;;;;16.13;8.45;;;;;;;1.62;100.00;100744.19;5051199;28;20037;-67
2023/03/03 08:14:35;;;;;;;18.77;8.95;;;;;;;1.72;99.11;100749.66;5051148;28;20120;-67
2023/03/03 08:17:06;;;;;;;25.48;10.23;;;;;;;1.84;99.45;100748.00;5052570;28;20067;-67
2023/03/03 08:19:32;;;;;;;20.65;9.73;;;;;;;1.90;100.00;100747.59;5052277;28;20041;-66
2023/03/03 08:22:19;;;;;;;15.35;8.35;;;;;;;2.04;100.00;100744.00;5052191;28;20037;-66
2023/03/03 08:24:45;;;;;;;19.63;9.40;;;;;;;2.22;98.49;100736.59;5051034;28;20060;-67
2023/03/03 08:27:10;;;;;;;26.35;10.00;;;;;;;2.35;96.68;100732.19;5050613;28;20040;-67
2023/03/03 08:29:36;;;;;;;20.45;10.35;;;;;;;2.49;95.98;100732.03;5052114;28;20469;-66
2023/03/03 08:32:01;;;;;;;20.88;10.48;;;;;;;2.47;96.04;100727.81;5052102;28;20040;-67
2023/03/03 08:34:26;;;;;;;21.00;10.48;;;;;;;2.57;96.59;100739.38;5052091;28;20068;-67
2023/03/03 08:36:52;;;;;;;23.17;10.20;;;;;;;2.71;93.09;100728.69;5051895;28;20068;-66
2023/03/03 08:39:17;;;;;;;23.48;11.07;;;;;;;2.94;92.08;100738.38;5051756;28;20068;-67
2023/03/03 08:41:43;;;;;;;22.55;11.50;;;;;;;3.21;91.46;100739.94;5051912;28;20059;-66
2023/03/03 08:44:09;;;;;;;19.25;10.80;;;;;;;3.50;90.00;100743.00;5051849;28;20091;-67
2023/03/03 08:46:35;;;;;;;21.52;11.02;;;;;;;3.56;87.78;100729.38;5051736;28;20086;-67
2023/03/03 08:49:01;;;;;;;26.33;9.73;;;;;;;3.56;86.85;100732.00;5051886;28;20033;-67
2023/03/03 08:51:27;;;;;;;17.88;9.85;;;;;;;3.44;87.73;100725.88;5050498;28;20041;-67
2023/03/03 08:53:52;;;;;;;25.05;10.98;;;;;;;3.76;88.50;100741.03;5051819;28;20490;-67
2023/03/03 08:56:17;;;;;;;25.17;10.43;;;;;;;4.01;85.74;100732.91;5051437;28;20135;-68
2023/03/03 08:58:46;;;;;;;20.98;10.48;;;;;;;4.19;84.27;100735.09;5051332;28;20032;-68
2023/03/03 09:01:15;;;;;;;20.23;10.45;;;;;;;4.27;84.03;100730.88;5051611;28;20044;-68
2023/03/03 09:03:41;;;;;;;20.13;10.20;;;;;;;4.46;81.08;100738.16;5051615;28;20557;-67
2023/03/03 09:06:06;;;;;;;21.65;10.43;;;;;;;4.60;78.49;100742.34;5051601;28;20167;-68
2023/03/03 09:08:32;;;;;;;21.02;11.70;;;;;;;4.86;78.52;100750.81;5051279;28;20170;-70
2023/03/03 09:10:57;;;;;;;24.00;11.40;;;;;;;5.05;77.94;100747.50;5050175;28;20040;-67
2023/03/03 09:13:22;;;;;;;21.55;11.00;;;;;;;5.15;77.23;100753.69;5051619;28;20041;-67
2023/03/03 09:15:49;;;;;;;19.05;9.70;;;;;;;5.31;74.68;100758.56;5051473;28;20033;-67
2023/03/03 09:18:41;;;;;;;21.45;10.63;;;;;;;5.36;73.66;100761.69;5051008;28;20059;-67
2023/03/03 09:21:22;;;;;;;19.40;10.25;;;;;;;5.52;73.20;100762.06;5049062;28;20052;-67
2023/03/03 09:23:56;;;;;;;26.23;10.90;;;;;;;5.53;71.99;100763.75;5051379;28;20139;-67
2023/03/03 09:26:44;;;;;;;21.38;10.95;;;;;;;5.48;71.42;100765.94;5051303;28;20175;-67
2023/03/03 09:29:13;;;;;;;23.63;11.20;;;;;;;5.71;71.63;100767.47;5051080;28;20112;-68
2023/03/03 09:31:42;;;;;;;21.25;11.40;;;;;;;5.76;70.17;100771.56;5051176;28;20037;-68
2023/03/03 09:34:22;;;;;;;24.77;12.93;;;;;;;6.05;69.72;100775.22;5051285;28;20085;-68
2023/03/03 09:36:50;;;;;;;23.83;12.65;;;;;;;6.19;69.02;100764.31;5051169;28;20047;-67
2023/03/03 09:39:24;;;;;;;21.48;11.43;;;;;;;6.48;68.22;100766.22;5051074;28;20048;-68
2023/03/03 09:41:58;;;;;;;25.35;12.02;;;;;;;6.87;66.58;100759.22;5051198;28;20041;-68
2023/03/03 09:44:26;;;;;;;23.25;12.23;;;;;;;6.82;64.72;100757.97;5051204;28;20037;-68
2023/03/03 09:47:16;;;;;;;22.08;10.68;;;;;;;7.35;62.39;100756.59;5051286;28;20033;-68
2023/03/03 09:49:48;;;;;;;20.88;10.63;;;;;;;7.49;61.20;100757.97;5051152;28;20052;-69
2023/03/03 09:52:34;;;;;;;18.80;10.57;;;;;;;7.53;60.46;100755.91;5051113;28;20029;-69
2023/03/03 09:55:29;;;;;;;20.90;10.65;;;;;;;7.18;60.22;100756.47;5051110;28;20037;-69
2023/03/03 09:58:36;;;;;;;19.00;9.80;;;;;;;7.48;59.50;100760.78;5050852;28;20045;-68
2023/03/03 10:01:29;;;;;;;17.15;8.90;;;;;;;7.89;58.03;100765.75;5021140;28;20040;-68
2023/03/03 10:04:00;;;;;;;18.27;10.20;;;;;;;7.86;57.22;100759.91;5051069;28;20160;-68
2023/03/03 10:06:38;;;;;;;24.95;11.23;;;;;;;8.05;57.11;100770.47;5051007;28;20070;-69
2023/03/03 10:09:12;;;;;;;19.58;10.07;;;;;;;8.12;57.07;100762.75;5053890;28;20035;-69
2023/03/03 10:11:48;;;;;;;21.13;10.80;;;;;;;8.64;55.50;100779.06;5054714;28;20124;-69
2023/03/03 10:14:44;;;;;;;17.40;9.18;;;;;;;8.80;54.54;100765.97;5054935;28;20044;-68
2023/03/03 10:17:37;;;;;;;17.60;9.95;;;;;;;9.36;52.76;100762.19;5054431;28;20489;-69
2023/03/03 10:20:08;;;;;;;20.70;10.43;;;;;;;9.65;52.04;100767.28;5054582;28;20513;-68
2023/03/03 10:22:51;;;;;;;19.15;10.52;;;;;;;9.87;52.07;100765.94;5054465;28;20036;-69
2023/03/03 10:25:27;;;;;;;25.52;11.10;;;;;;;10.10;50.47;100768.06;5054346;28;20506;-69
2023/03/03 10:28:13;;;;;;;21.98;10.60;;;;;;;10.30;49.24;100773.06;5054196;28;20139;-69
2023/03/03 10:30:57;;;;;;;21.00;11.07;;;;;;;11.06;47.43;100766.81;5054349;28;20029;-70
2023/03/03 10:33:37;;;;;;;21.25;11.07;;;;;;;10.86;48.75;100768.09;5054287;28;20040;-69
2023/03/03 10:36:24;;;;;;;21.38;12.32;;;;;;;11.04;48.40;100757.31;5054340;28;20045;-70
2023/03/03 10:39:14;;;;;;;23.60;11.82;;;;;;;11.88;46.18;100764.22;5053993;28;20048;-69
2023/03/03 10:42:19;;;;;;;23.63;11.18;;;;;;;12.27;44.66;100761.63;5054358;28;20460;-68
2023/03/03 10:44:57;;;;;;;23.10;11.57;;;;;;;12.46;44.69;100763.06;5033409;28;20045;-69
2023/03/03 10:47:28;;;;;;;25.38;12.50;;;;;;;12.73;43.97;100761.75;5054042;28;20469;-69
2023/03/03 10:50:36;;;;;;;21.83;12.13;;;;;;;11.63;45.99;100752.69;5054057;28;20037;-69
2023/03/03 10:53:26;;;;;;;23.75;11.32;;;;;;;12.87;45.23;100758.34;5045141;28;20057;-70
2023/03/03 10:56:28;;;;;;;17.52;10.20;;;;;;;12.85;45.86;100762.22;5054033;28;20079;-70
2023/03/03 10:59:17;;;;;;;22.90;12.25;;;;;;;13.40;42.22;100766.56;5053613;28;20039;-70
2023/03/03 11:02:00;;;;;;;22.33;11.68;;;;;;;14.17;40.14;100769.03;5053880;28;20029;-70
2023/03/03 11:04:52;;;;;;;17.65;10.23;;;;;;;14.18;40.13;100776.06;5052499;28;20142;-70
2023/03/03 11:07:26;;;;;;;18.58;10.18;;;;;;;14.40;40.02;100773.28;5053343;28;20494;-69
2023/03/03 11:10:08;;;;;;;21.10;10.95;;;;;;;14.63;39.10;100767.00;5053807;28;20045;-69
2023/03/03 11:12:56;;;;;;;20.10;10.38;;;;;;;12.90;42.67;100770.50;5053542;28;20033;-71
2023/03/03 11:15:48;;;;;;;18.95;10.30;;;;;;;12.66;43.89;100764.31;5053595;28;20072;-71
2023/03/03 11:18:29;;;;;;;20.00;11.25;;;;;;;13.38;40.88;100769.41;5051988;28;20033;-71
2023/03/03 11:21:06;;;;;;;23.60;11.63;;;;;;;14.26;38.49;100775.97;5053511;28;20048;-69
2023/03/03 11:23:54;;;;;;;22.10;11.15;;;;;;;13.88;38.45;100762.63;5053545;28;20116;-69
2023/03/03 11:26:28;;;;;;;20.88;10.27;;;;;;;14.17;38.35;100769.88;5053629;28;20094;-70
2023/03/03 11:29:05;;;;;;;16.13;9.30;;;;;;;14.55;37.87;100772.50;5053196;28;20041;-69
2023/03/03 11:31:59;;;;;;;19.38;9.60;;;;;;;15.06;36.51;100759.03;5053391;28;20460;-70
2023/03/03 11:34:55;;;;;;;17.98;9.50;;;;;;;15.04;36.07;100756.56;5053136;28;20421;-70
2023/03/03 11:37:23;;;;;;;18.17;9.70;;;;;;;13.94;37.21;100751.16;5052788;28;20041;-71
2023/03/03 11:39:52;;;;;;;17.30;9.57;;;;;;;13.91;37.46;100743.53;5053081;28;20090;-69
2023/03/03 11:42:26;;;;;;;21.55;9.85;;;;;;;15.01;36.88;100737.34;5053093;28;20029;-69
2023/03/03 11:45:00;;;;;;;18.25;10.00;;;;;;;14.86;36.18;100732.81;5053031;28;20037;-70
2023/03/03 11:47:36;;;;;;;18.23;10.35;;;;;;;15.37;35.55;100737.28;5052621;28;20071;-69
2023/03/03 11:50:05;;;;;;;20.67;10.50;;;;;;;15.98;34.66;100734.91;5053189;28;20106;-69
2023/03/03 11:52:53;;;;;;;17.50;9.82;;;;;;;15.99;33.96;100729.34;5052852;28;20033;-71
2023/03/03 11:55:26;;;;;;;21.75;10.18;;;;;;;16.20;34.12;100723.03;5052625;28;20029;-70
2023/03/03 11:58:03;;;;;;;20.98;9.82;;;;;;;15.62;34.64;100716.25;5052538;28;20128;-69
2023/03/03 12:00:46;;;;;;;22.98;10.65;;;;;;;16.33;34.01;100716.91;5052797;28;20044;-70
2023/03/03 12:03:40;;;;;;;19.48;10.77;;;;;;;16.65;33.47;100717.25;5052599;28;20470;-71
2023/03/03 12:06:06;;;;;;;22.45;10.45;;;;;;;15.54;35.19;100709.13;5036580;28;20052;-70
2023/03/03 12:08:46;;;;;;;19.77;10.13;;;;;;;16.33;33.82;100719.59;5052413;28;20037;-71
2023/03/03 12:11:12;;;;;;;18.52;10.32;;;;;;;16.46;33.74;100722.34;5052519;28;20041;-69
2023/03/03 12:13:55;;;;;;;19.95;10.50;;;;;;;14.99;36.50;100702.63;5052430;28;20125;-71
2023/03/03 12:16:52;;;;;;;24.77;12.38;;;;;;;14.64;36.86;100709.69;5052449;28;20163;-71
2023/03/03 12:19:33;;;;;;;25.77;11.30;;;;;;;15.65;35.21;100702.44;5052113;28;20525;-70
2023/03/03 12:22:10;;;;;;;22.23;10.68;;;;;;;16.57;34.17;100704.00;5052284;28;20059;-71
2023/03/03 12:24:56;;;;;;;24.13;11.55;;;;;;;17.27;32.97;100710.78;5052329;28;20040;-72
2023/03/03 12:28:04;;;;;;;20.13;11.07;;;;;;;16.54;34.04;100703.34;5051931;28;20048;-72
2023/03/03 12:31:00;;;;;;;20.60;10.48;;;;;;;15.91;34.38;100699.09;5051675;28;20048;-71
2023/03/03 12:33:41;;;;;;;18.75;10.48;;;;;;;15.78;34.75;100689.13;5052084;28;20044;-71
2023/03/03 12:36:24;;;;;;;19.90;11.32;;;;;;;16.24;34.38;100688.56;5052078;28;20498;-72
2023/03/03 12:39:07;;;;;;;20.05;11.60;;;;;;;15.70;35.35;100689.25;5051817;28;20484;-72
2023/03/03 12:42:03;;;;;;;23.63;11.20;;;;;;;16.02;35.24;100680.56;5052076;28;20652;-70
2023/03/03 12:44:54;;;;;;;21.60;10.80;;;;;;;16.54;34.05;100684.53;5051996;28;20120;-69
2023/03/03 12:47:40;;;;;;;22.88;11.07;;;;;;;16.61;34.24;100683.72;5051417;28;20095;-70
2023/03/03 12:50:08;;;;;;;21.30;11.13;;;;;;;16.84;33.19;100678.84;5051902;28;20094;-71
2023/03/03 12:53:07;;;;;;;24.27;12.95;;;;;;;15.42;36.18;100686.53;5051734;28;20044;-70
2023/03/03 12:55:57;;;;;;;24.88;11.02;;;;;;;15.02;36.33;100679.97;5051653;28;20052;-70
2023/03/03 12:58:37;;;;;;;23.58;12.60;;;;;;;14.79;36.84;100672.09;5051412;28;20544;-70
2023/03/03 13:01:29;;;;;;;22.58;12.52;;;;;;;15.55;35.84;100672.38;5050370;28;20501;-70
2023/03/03 13:04:22;;;;;;;22.05;11.02;;;;;;;15.75;36.45;100668.00;5051648;28;20074;-70
2023/03/03 13:07:04;;;;;;;25.55;12.75;;;;;;;15.47;36.55;100666.13;5051490;28;20040;-70
2023/03/03 13:10:01;;;;;;;18.02;11.63;;;;;;;15.46;37.93;100664.47;5051489;28;20036;-70
2023/03/03 13:12:32;;;;;;;24.85;11.75;;;;;;;15.19;38.77;100678.69;5051532;28;20037;-69
2023/03/03 13:15:17;;;;;;;22.40;11.70;;;;;;;15.96;34.96;100670.59;5050412;28;20397;-70
2023/03/03 13:18:06;;;;;;;24.38;13.07;;;;;;;15.06;35.58;100665.16;5051346;28;20448;-70
2023/03/03 13:20:41;;;;;;;21.15;11.80;;;;;;;14.58;37.49;100672.91;5051444;28;20029;-71
2023/03/03 13:23:42;;;;;;;24.92;12.90;;;;;;;14.93;36.41;100672.06;5051447;28;20033;-70
2023/03/03 13:26:49;;;;;;;22.83;11.98;;;;;;;15.57;35.91;100665.78;5034519;28;20466;-70
2023/03/03 13:29:22;;;;;;;22.13;12.38;;;;;;;16.07;34.95;100665.72;5017378;28;20052;-70
2023/03/03 13:31:55;;;;;;;21.58;11.75;;;;;;;16.37;34.71;100658.22;5051314;28;20052;-70
2023/03/03 13:35:05;;;;;;;25.08;12.10;;;;;;;16.03;36.30;100670.63;5050329;28;20513;-69
2023/03/03 13:37:36;;;;;;;22.25;11.82;;;;;;;15.45;36.54;100662.81;5050952;28;20037;-70
2023/03/03 13:40:17;;;;;;;23.10;12.68;;;;;;;15.63;36.19;100664.19;5051433;28;20045;-71
2023/03/03 13:42:49;;;;;;;23.42;11.57;;;;;;;15.38;36.38;100661.91;5052550;28;20047;-69
2023/03/03 13:45:23;;;;;;;20.67;11.52;;;;;;;15.35;35.75;100659.63;5060958;28;20041;-70
2023/03/03 13:48:00;;;;;;;25.63;12.43;;;;;;;14.54;38.20;100658.22;5074712;28;20064;-70
2023/03/03 13:50:37;;;;;;;26.92;13.63;;;;;;;13.91;38.60;100660.50;5074943;28;20059;-69
2023/03/03 13:53:23;;;;;;;28.20;12.97;;;;;;;14.40;38.05;100647.31;5075056;28;20037;-71
2023/03/03 13:56:07;;;;;;;23.38;12.32;;;;;;;13.99;38.55;100646.19;5074794;28;20089;-70
2023/03/03 13:59:00;;;;;;;24.33;12.57;;;;;;;13.80;38.50;100643.03;5074510;28;20047;-71
2023/03/03 14:01:46;;;;;;;28.67;12.95;;;;;;;13.65;39.38;100644.88;5074709;28;20028;-70
2023/03/03 14:04:30;;;;;;;26.73;12.65;;;;;;;13.42;39.68;100641.44;5074865;28;20424;-69
2023/03/03 14:07:21;;;;;;;29.00;13.20;;;;;;;13.35;39.55;100641.31;5074397;28;20047;-69
2023/03/03 14:10:00;;;;;;;26.30;12.95;;;;;;;11.84;42.39;100638.25;5067056;28;20040;-70
2023/03/03 14:12:37;;;;;;;24.85;12.00;;;;;;;12.38;42.41;100635.66;5074509;28;20048;-70
2023/03/03 14:15:20;;;;;;;28.38;14.05;;;;;;;12.56;41.86;100629.22;5075106;28;20381;-69
2023/03/03 14:17:52;;;;;;;26.88;13.02;;;;;;;12.17;43.29;100627.44;5074134;28;20437;-68
2023/03/03 14:20:20;;;;;;;30.70;13.07;;;;;;;12.17;42.40;100633.59;5074397;28;20355;-70
2023/03/03 14:23:07;;;;;;;26.65;12.55;;;;;;;12.05;44.02;100620.81;5074344;28;20481;-69
2023/03/03 14:25:51;;;;;;;26.02;12.52;;;;;;;11.57;44.40;100628.78;5074259;28;20111;-69
2023/03/03 14:28:21;;;;;;;26.58;12.77;;;;;;;11.81;43.81;100627.09;5073980;28;20111;-69
2023/03/03 14:30:47;;;;;;;23.63;12.00;;;;;;;11.77;44.40;100629.22;5074146;28;20128;-67
2023/03/03 14:33:12;;;;;;;29.30;12.27;;;;;;;11.77;44.70;100626.56;5074154;28;20374;-68
2023/03/03 14:35:40;;;;;;;23.77;11.88;;;;;;;11.86;44.46;100624.72;5074041;28;20090;-69
2023/03/03 14:38:16;;;;;;;26.88;12.63;;;;;;;11.69;44.71;100627.44;5073895;28;20445;-69
2023/03/03 14:40:44;;;;;;;28.80;13.77;;;;;;;11.91;44.31;100628.53;5074148;28;20090;-68
2023/03/03 14:43:31;;;;;;;;;;;;;;;11.95;43.87;100627.19;5074379;28;20101;-68
2023/03/03 14:46:27;;;;;;;32.38;12.80;;;;;;;11.93;44.16;100623.03;5073964;28;19920;-68
2023/03/03 14:48:56;;;;;;;28.20;12.55;;;;;;;11.70;44.56;100617.56;5073558;28;20082;-67
2023/03/03 14:51:27;;;;;;;25.50;11.63;;;;;;;11.71;44.92;100621.06;5073726;28;20446;-68
2023/03/03 14:53:55;;;;;;;23.92;11.88;;;;;;;11.71;44.93;100618.41;5073414;28;20060;-67
2023/03/03 14:56:25;;;;;;;;;;;;;;;11.47;44.83;100625.47;5073794;28;20127;-69
2023/03/03 14:58:53;;;;;;;27.05;11.93;;;;;;;11.05;46.97;100618.53;5073602;28;19919;-68
2023/03/03 15:01:34;;;;;;;27.02;13.10;;;;;;;11.02;48.00;100618.88;5074107;28;20477;-68
2023/03/03 15:04:09;;;;;;;25.55;11.63;;;;;;;10.50;48.76;100615.66;5073814;28;20035;-68
2023/03/03 15:06:41;;;;;;;26.08;11.48;;;;;;;10.73;48.27;100619.34;5073773;28;20047;-68
2023/03/03 15:09:25;;;;;;;24.63;11.57;;;;;;;11.01;46.84;100613.69;5073384;28;20051;-69
2023/03/03 15:11:52;;;;;;;27.88;11.98;;;;;;;11.05;47.11;100615.03;5073679;28;20458;-68
2023/03/03 15:14:25;;;;;;;33.55;13.00;;;;;;;10.78;46.92;100610.84;5073616;28;20063;-68
2023/03/03 15:16:50;;;;;;;32.17;13.38;;;;;;;10.72;46.79;100611.53;5073591;28;20068;-67
2023/03/03 15:19:38;;;;;;;29.05;13.07;;;;;;;10.97;46.91;100610.53;5071968;28;20128;-67
2023/03/03 15:22:19;;;;;;;25.35;12.02;;;;;;;10.93;47.62;100603.84;5073397;28;20048;-68
2023/03/03 15:24:56;;;;;;;24.95;11.43;;;;;;;11.01;47.41;100590.53;5073534;28;20418;-68
2023/03/03 15:27:39;;;;;;;28.30;13.80;;;;;;;10.92;47.04;100594.19;5073052;28;20051;-68
2023/03/03 15:30:26;;;;;;;22.40;11.90;;;;;;;10.61;47.50;100599.34;5073423;28;20047;-68
2023/03/03 15:33:03;;;;;;;24.77;11.30;;;;;;;10.72;48.20;100606.19;5073329;28;20078;-68
2023/03/03 15:35:56;;;;;;;30.65;11.40;;;;;;;10.65;47.87;100605.19;5073276;28;20032;-67
2023/03/03 15:38:33;;;;;;;24.13;11.80;;;;;;;10.67;47.96;100604.00;5072903;28;20020;-68
2023/03/03 15:41:31;;;;;;;24.08;11.65;;;;;;;10.55;47.91;100600.81;5073177;28;20043;-68
2023/03/03 15:44:25;;;;;;;25.42;12.40;;;;;;;10.34;49.44;100597.81;5073015;28;20032;-67
2023/03/03 15:47:02;;;;;;;23.75;10.60;;;;;;;10.51;48.82;100599.50;5072847;28;20029;-67
2023/03/03 15:49:51;;;;;;;29.70;12.40;;;;;;;10.54;48.44;100604.50;5072647;28;20028;-67
2023/03/03 15:52:33;;;;;;;24.05;11.32;;;;;;;10.52;48.83;100605.66;5072704;28;20039;-68
2023/03/03 15:55:37;;;;;;;22.33;11.18;;;;;;;10.41;49.25;100601.47;5072654;28;20135;-68
2023/03/03 15:58:20;;;;;;;28.90;11.50;;;;;;;9.97;51.88;100609.63;5072205;28;20105;-68
2023/03/03 16:01:00;;;;;;;22.98;10.70;;;;;;;10.11;50.20;100616.19;5072425;28;20029;-68
2023/03/03 16:03:36;;;;;;;22.90;11.65;;;;;;;10.16;49.82;100618.34;5072514;28;20029;-68
2023/03/03 16:06:17;;;;;;;27.45;12.02;;;;;;;10.02;50.13;100612.66;5071514;28;20064;-69
2023/03/03 16:09:00;;;;;;;27.27;11.60;;;;;;;10.02;49.66;100602.00;5072089;28;20420;-67
2023/03/03 16:11:56;;;;;;;27.60;11.65;;;;;;;10.01;50.12;100607.50;5072158;28;20040;-68
2023/03/03 16:14:47;;;;;;;35.67;12.32;;;;;;;9.48;52.75;100620.03;5072306;28;20067;-67
2023/03/03 16:17:36;;;;;;;27.40;12.20;;;;;;;9.61;51.37;100608.97;5072170;28;20032;-68
2023/03/03 16:20:12;;;;;;;22.90;11.40;;;;;;;9.55;51.52;100622.06;5072196;28;20055;-68
2023/03/03 16:23:02;;;;;;;25.15;12.15;;;;;;;9.59;52.00;100628.75;5072204;28;20528;-67
2023/03/03 16:25:57;;;;;;;22.13;11.98;;;;;;;9.66;51.39;100621.81;5072507;28;20051;-68
2023/03/03 16:28:39;;;;;;;24.60;11.75;;;;;;;9.60;51.76;100633.91;5058820;28;20048;-67
2023/03/03 16:31:36;;;;;;;22.13;10.95;;;;;;;9.42;52.82;100639.28;5071944;28;20043;-68
2023/03/03 16:34:27;;;;;;;27.45;11.60;;;;;;;9.17;53.26;100637.44;5071108;28;20437;-67
2023/03/03 16:37:04;;;;;;;27.70;12.35;;;;;;;9.08;54.75;100641.03;5071686;28;20495;-68
2023/03/03 16:39:51;;;;;;;23.48;11.30;;;;;;;9.13;55.00;100642.25;5071656;28;20036;-68
2023/03/03 16:42:25;;;;;;;34.97;12.73;;;;;;;8.94;55.81;100637.09;5071764;28;20048;-66
2023/03/03 16:45:05;;;;;;;24.00;10.80;;;;;;;8.83;55.64;100630.19;5071735;28;20500;-67
2023/03/03 16:47:40;;;;;;;25.17;11.38;;;;;;;8.74;56.83;100647.03;5071545;28;20032;-70
2023/03/03 16:50:12;;;;;;;33.00;12.75;;;;;;;8.72;56.48;100651.66;5071583;28;20672;-70
2023/03/03 16:53:16;;;;;;;26.00;12.40;;;;;;;8.66;56.67;100652.25;5071631;28;20037;-69
2023/03/03 16:56:01;;;;;;;29.85;13.75;;;;;;;8.49;56.79;100648.63;5071568;28;20040;-69
2023/03/03 16:58:43;;;;;;;20.77;10.93;;;;;;;8.58;56.90;100665.47;5071233;28;20512;-69
2023/03/03 17:01:47;;;;;;;24.30;12.00;;;;;;;8.25;58.00;100669.53;5071414;28;20032;-68
2023/03/03 17:05:10;;;;;;;24.30;12.30;;;;;;;8.24;58.62;100668.72;5071406;28;20077;-68
2023/03/03 17:07:45;;;;;;;27.58;11.82;;;;;;;8.24;58.31;100678.50;5008963;28;20460;-69
2023/03/03 17:10:21;;;;;;;22.95;11.90;;;;;;;8.18;58.42;100676.41;4992923;28;20053;-68
2023/03/03 17:12:59;;;;;;;23.98;11.18;;;;;;;8.10;58.65;100682.47;5046593;28;20053;-68
2023/03/03 17:16:04;;;;;;;27.33;12.30;;;;;;;8.09;58.93;100686.13;5071592;28;20540;-68
2023/03/03 17:18:51;;;;;;;22.35;11.48;;;;;;;8.02;58.74;100688.50;5047195;28;20078;-68
2023/03/03 17:21:31;;;;;;;26.33;12.05;;;;;;;7.92;59.46;100681.56;5071141;28;20402;-68
2023/03/03 17:24:06;;;;;;;32.67;12.32;;;;;;;7.94;58.86;100687.53;5071077;28;20040;-68